createdAt,value
2023-05-10T00:01:37.230Z,30.50
2023-05-10T00:04:04.241Z,28.00
2023-05-10T00:06:31.321Z,33.97
2023-05-10T00:08:58.137Z,30.13
2023-05-10T00:11:25.123Z,36.25
2023-05-10T00:13:51.867Z,25.35
2023-05-10T00:16:18.737Z,27.85
2023-05-10T00:18:45.570Z,30.08
2023-05-10T00:21:12.234Z,25.25
2023-05-10T00:23:39.755Z,22.98
2023-05-10T00:26:06.428Z,29.65
2023-05-10T00:28:33.108Z,27.00
2023-05-10T00:30:59.940Z,30.05
2023-05-10T00:33:26.734Z,27.55
2023-05-10T00:35:53.621Z,29.25
2023-05-10T00:38:20.308Z,27.80
2023-05-10T00:40:47.120Z,27.40
2023-05-10T00:43:21.825Z,25.63
2023-05-10T00:45:48.591Z,22.92
2023-05-10T00:48:15.471Z,28.38
2023-05-10T00:50:42.577Z,28.38
2023-05-10T00:53:10.163Z,31.00
2023-05-10T00:55:37.141Z,30.17
2023-05-10T00:58:04.073Z,29.17
2023-05-10T01:00:31.134Z,28.07
2023-05-10T01:02:58.326Z,27.23
2023-05-10T01:05:25.833Z,27.67
2023-05-10T01:07:52.616Z,29.92
2023-05-10T01:10:19.604Z,26.92
2023-05-10T01:12:47.784Z,23.37
2023-05-10T01:15:16.981Z,30.75
2023-05-10T01:17:48.595Z,31.30
2023-05-10T01:20:16.475Z,32.45
2023-05-10T01:25:38.842Z,34.85
2023-05-10T01:28:33.430Z,33.22
2023-05-10T01:31:45.194Z,35.03
2023-05-10T01:34:21.846Z,30.30
2023-05-10T01:37:08.495Z,35.60
2023-05-10T01:40:16.363Z,32.13
2023-05-10T01:42:59.413Z,36.55
2023-05-10T01:45:32.914Z,35.08
2023-05-10T01:48:12.260Z,34.80
2023-05-10T01:50:43.025Z,34.13
2023-05-10T01:53:13.940Z,36.28
2023-05-10T01:55:56.205Z,31.30
2023-05-10T01:58:32.797Z,34.83
2023-05-10T02:01:02.542Z,34.25
2023-05-10T02:03:31.469Z,33.13
2023-05-10T02:05:59.982Z,36.22
2023-05-10T02:08:27.962Z,32.17
2023-05-10T02:10:59.619Z,40.60
2023-05-10T02:13:28.369Z,39.67
2023-05-10T02:15:56.665Z,35.35
2023-05-10T02:18:24.986Z,39.95
2023-05-10T02:20:54.813Z,40.40
2023-05-10T02:23:22.635Z,38.17
2023-05-10T02:25:51.007Z,43.28
2023-05-10T02:28:19.119Z,40.63
2023-05-10T02:30:47.981Z,42.38
2023-05-10T02:33:15.602Z,40.50
2023-05-10T02:35:42.770Z,38.70
2023-05-10T02:38:11.238Z,41.85
2023-05-10T02:40:38.968Z,38.28
2023-05-10T02:43:10.243Z,36.45
2023-05-10T02:45:39.895Z,37.78
2023-05-10T02:48:07.134Z,38.75
2023-05-10T02:50:35.012Z,40.13
2023-05-10T02:53:04.881Z,37.15
2023-05-10T02:55:36.479Z,34.28
2023-05-10T02:58:04.747Z,34.22
2023-05-10T03:02:58.776Z,32.22
2023-05-10T03:05:26.371Z,39.10
2023-05-10T03:07:54.070Z,34.20
2023-05-10T03:10:27.821Z,32.97
2023-05-10T03:13:30.424Z,36.47
2023-05-10T03:16:05.579Z,39.47
2023-05-10T03:18:43.023Z,38.95
2023-05-10T03:21:13.567Z,34.00
2023-05-10T03:23:51.688Z,36.58
2023-05-10T03:26:24.668Z,36.78
2023-05-10T03:28:54.301Z,31.65
2023-05-10T03:31:22.004Z,30.27
2023-05-10T03:33:49.790Z,34.45
2023-05-10T03:36:21.993Z,30.70
2023-05-10T03:38:48.821Z,33.07
2023-05-10T03:41:16.218Z,33.75
2023-05-10T03:43:42.953Z,28.88
2023-05-10T03:46:09.589Z,32.10
2023-05-10T03:48:36.499Z,32.80
2023-05-10T03:51:03.221Z,34.20
2023-05-10T03:53:30.296Z,41.75
2023-05-10T03:55:56.964Z,37.75
2023-05-10T03:58:24.842Z,42.30
2023-05-10T04:00:52.822Z,39.92
2023-05-10T04:03:19.758Z,49.20
2023-05-10T04:05:46.529Z,43.97
2023-05-10T04:08:13.223Z,43.35
2023-05-10T04:10:40.752Z,44.53
2023-05-10T04:13:07.502Z,44.40
2023-05-10T04:15:34.238Z,49.40
2023-05-10T04:18:01.249Z,53.42
2023-05-10T04:20:27.920Z,51.90
2023-05-10T04:22:54.795Z,60.00
2023-05-10T04:25:21.662Z,58.50
2023-05-10T04:27:48.402Z,61.83
2023-05-10T04:30:15.402Z,60.15
2023-05-10T04:32:42.369Z,64.78
2023-05-10T04:35:11.062Z,54.92
2023-05-10T04:37:37.880Z,65.35
2023-05-10T04:40:05.134Z,61.65
2023-05-10T04:42:31.851Z,59.53
2023-05-10T04:44:58.498Z,58.63
2023-05-10T04:47:25.196Z,59.65
2023-05-10T04:49:51.946Z,49.67
2023-05-10T04:52:18.948Z,61.67
2023-05-10T04:54:45.630Z,54.20
2023-05-10T04:57:12.400Z,52.10
2023-05-10T04:59:39.084Z,52.78
2023-05-10T05:02:06.460Z,54.60
2023-05-10T05:04:33.284Z,53.10
2023-05-10T05:07:00.117Z,55.17
2023-05-10T05:09:26.827Z,55.47
2023-05-10T05:11:53.457Z,49.53
2023-05-10T05:14:21.958Z,49.95
2023-05-10T05:16:48.779Z,52.90
2023-05-10T05:19:15.477Z,47.03
2023-05-10T05:21:42.242Z,43.05
2023-05-10T05:24:09.625Z,46.42
2023-05-10T05:26:36.324Z,46.80
2023-05-10T05:29:03.275Z,45.30
2023-05-10T05:31:30.163Z,50.75
2023-05-10T05:33:56.939Z,53.50
2023-05-10T05:36:23.775Z,46.50
2023-05-10T05:38:50.616Z,37.65
2023-05-10T05:41:17.324Z,42.90
2023-05-10T05:43:43.934Z,52.33
2023-05-10T05:46:10.782Z,49.25
2023-05-10T05:48:37.487Z,50.53
2023-05-10T05:51:06.543Z,46.88
2023-05-10T05:53:33.916Z,41.17
2023-05-10T05:56:00.693Z,43.03
2023-05-10T05:58:27.881Z,44.05
2023-05-10T06:00:55.034Z,39.72
2023-05-10T06:03:21.891Z,38.83
2023-05-10T06:05:49.123Z,46.88
2023-05-10T06:08:15.983Z,41.60
2023-05-10T06:10:42.667Z,34.80
2023-05-10T06:13:09.550Z,42.60
2023-05-10T06:15:36.457Z,37.05
2023-05-10T06:18:03.211Z,36.47
2023-05-10T06:20:29.942Z,36.63
2023-05-10T06:22:56.665Z,33.10
2023-05-10T06:25:23.282Z,30.58
2023-05-10T06:27:52.920Z,27.15
2023-05-10T06:30:21.263Z,27.65
2023-05-10T06:32:48.055Z,27.75
2023-05-10T06:35:14.888Z,28.02
2023-05-10T06:37:42.007Z,30.73
2023-05-10T06:40:09.175Z,29.65
2023-05-10T06:42:35.878Z,18.83
2023-05-10T06:45:03.463Z,20.55
2023-05-10T06:47:30.254Z,20.13
2023-05-10T06:49:57.077Z,22.20
2023-05-10T06:52:24.413Z,14.27
2023-05-10T06:54:51.409Z,13.48
2023-05-10T06:57:30.598Z,13.55
2023-05-10T06:59:59.189Z,13.52
2023-05-10T07:02:25.965Z,12.63
2023-05-10T07:04:53.168Z,13.05
2023-05-10T07:07:20.092Z,11.60
2023-05-10T07:09:46.874Z,10.27
2023-05-10T07:12:15.039Z,9.02
2023-05-10T07:14:42.829Z,13.60
2023-05-10T07:17:09.895Z,9.65
2023-05-10T07:19:36.980Z,12.57
2023-05-10T07:22:04.112Z,10.13
2023-05-10T07:24:32.288Z,10.47
2023-05-10T07:26:59.097Z,11.88
2023-05-10T07:29:26.237Z,13.43
2023-05-10T07:31:53.070Z,17.23
2023-05-10T07:34:19.899Z,18.48
2023-05-10T07:36:46.787Z,14.13
2023-05-10T07:39:18.645Z,15.77
2023-05-10T07:41:51.448Z,12.75
2023-05-10T07:44:20.154Z,12.20
2023-05-10T07:46:47.618Z,16.55
2023-05-10T07:49:14.480Z,15.55
2023-05-10T07:51:41.285Z,14.13
2023-05-10T07:54:07.901Z,13.07
2023-05-10T07:56:35.563Z,15.20
2023-05-10T07:59:04.949Z,17.08
2023-05-10T08:01:33.456Z,21.65
2023-05-10T08:04:00.253Z,16.55
2023-05-10T08:06:31.026Z,14.95
2023-05-10T08:08:58.422Z,20.55
2023-05-10T08:11:25.902Z,19.58
2023-05-10T08:13:52.929Z,19.27
2023-05-10T08:16:19.894Z,19.92
2023-05-10T08:18:48.011Z,26.55
2023-05-10T08:21:15.925Z,24.08
2023-05-10T08:23:44.711Z,22.42
2023-05-10T08:26:11.824Z,25.15
2023-05-10T08:28:38.619Z,24.23
2023-05-10T08:31:06.200Z,26.42
2023-05-10T08:33:33.086Z,32.35
2023-05-10T08:35:59.876Z,27.92
2023-05-10T08:38:26.991Z,30.83
2023-05-10T08:40:59.777Z,25.67
2023-05-10T08:43:31.047Z,31.10
2023-05-10T08:46:02.188Z,28.75
2023-05-10T08:48:31.141Z,29.60
2023-05-10T08:51:00.380Z,32.38
2023-05-10T08:53:28.259Z,19.75
2023-05-10T08:58:21.898Z,28.65
2023-05-10T09:00:51.914Z,31.92
2023-05-10T09:03:18.972Z,30.95
2023-05-10T09:05:46.160Z,25.83
2023-05-10T09:08:14.474Z,22.05
2023-05-10T09:10:43.277Z,25.15
2023-05-10T09:13:11.842Z,19.98
2023-05-10T09:15:39.750Z,27.75
2023-05-10T09:20:33.316Z,19.13
2023-05-10T09:22:59.980Z,20.08
2023-05-10T09:25:26.667Z,21.40
2023-05-10T09:27:53.786Z,15.18
2023-05-10T09:30:28.653Z,19.70
2023-05-10T09:32:56.492Z,21.55
2023-05-10T09:37:56.061Z,15.45
2023-05-10T09:40:24.627Z,21.73
2023-05-10T09:43:01.626Z,24.85
2023-05-10T09:45:30.537Z,22.70
2023-05-10T09:47:58.262Z,23.33
2023-05-10T09:50:25.290Z,19.40
2023-05-10T09:52:56.226Z,17.83
2023-05-10T09:55:26.308Z,18.23
2023-05-10T09:58:03.363Z,22.23
2023-05-10T10:00:37.049Z,24.20
2023-05-10T10:03:04.694Z,22.63
2023-05-10T10:05:32.969Z,20.05
2023-05-10T10:08:00.187Z,23.27
2023-05-10T10:10:28.282Z,21.48
2023-05-10T10:12:55.666Z,20.33
2023-05-10T10:15:23.538Z,22.05
2023-05-10T10:20:18.900Z,18.25
2023-05-10T10:22:46.771Z,19.25
2023-05-10T10:25:17.893Z,19.42
2023-05-10T10:27:53.667Z,23.23
2023-05-10T10:30:23.450Z,15.02
2023-05-10T10:32:59.390Z,22.10
2023-05-10T10:35:26.298Z,21.77
2023-05-10T10:37:52.974Z,21.58
2023-05-10T10:40:26.790Z,21.83
2023-05-10T10:42:54.731Z,24.88
2023-05-10T10:47:49.269Z,19.05
2023-05-10T10:50:17.291Z,20.50
2023-05-10T10:52:45.171Z,14.10
2023-05-10T10:55:20.026Z,16.50
2023-05-10T10:57:52.880Z,15.48
2023-05-10T11:00:41.014Z,17.90
2023-05-10T11:03:18.305Z,14.15
2023-05-10T11:05:58.960Z,17.95
2023-05-10T11:08:30.692Z,16.50
2023-05-10T11:11:00.147Z,13.30
2023-05-10T11:13:35.149Z,15.45
2023-05-10T11:16:14.947Z,15.52
2023-05-10T11:18:52.539Z,12.27
2023-05-10T11:21:19.287Z,12.43
2023-05-10T11:23:45.844Z,14.57
2023-05-10T11:26:12.992Z,14.85
2023-05-10T11:28:47.510Z,16.25
2023-05-10T11:31:16.179Z,14.55
2023-05-10T11:33:48.092Z,10.10
2023-05-10T11:36:20.339Z,13.27
2023-05-10T11:38:48.283Z,17.25
2023-05-10T11:43:42.390Z,12.18
2023-05-10T11:46:12.188Z,15.38
2023-05-10T11:48:43.266Z,13.88
2023-05-10T11:51:11.476Z,8.32
2023-05-10T11:53:39.108Z,11.52
2023-05-10T11:56:10.685Z,13.07
2023-05-10T11:58:39.422Z,12.23
2023-05-10T12:01:07.649Z,12.50
2023-05-10T12:03:35.294Z,17.98
2023-05-10T12:06:03.533Z,11.88
2023-05-10T12:08:31.923Z,10.40
2023-05-10T12:11:07.683Z,10.63
2023-05-10T12:13:39.076Z,11.35
2023-05-10T12:16:16.954Z,10.18
2023-05-10T12:18:43.782Z,9.25
2023-05-10T12:21:12.703Z,11.65
2023-05-10T12:23:40.574Z,8.82
2023-05-10T12:28:34.672Z,13.07
2023-05-10T12:31:03.661Z,11.02
2023-05-10T12:33:50.268Z,9.80
2023-05-10T12:36:17.765Z,8.10
2023-05-10T12:38:49.063Z,9.00
2023-05-10T12:41:17.874Z,13.30
2023-05-10T12:43:45.057Z,8.75
2023-05-10T12:46:14.410Z,8.68
2023-05-10T12:48:42.385Z,8.55
2023-05-10T12:51:10.539Z,9.40
2023-05-10T12:53:37.787Z,9.38
2023-05-10T12:56:04.825Z,10.65
2023-05-10T12:58:35.862Z,9.53
2023-05-10T13:01:03.525Z,10.07
2023-05-10T13:03:30.352Z,10.43
2023-05-10T13:05:57.294Z,11.88
2023-05-10T13:08:23.984Z,8.55
2023-05-10T13:10:50.741Z,9.13
2023-05-10T13:13:17.520Z,5.15
2023-05-10T13:15:44.213Z,10.20
2023-05-10T13:18:11.135Z,11.02
2023-05-10T13:20:37.939Z,12.03
2023-05-10T13:23:04.669Z,7.93
2023-05-10T13:25:31.752Z,7.50
2023-05-10T13:27:58.475Z,8.98
2023-05-10T13:30:25.137Z,8.38
2023-05-10T13:32:51.891Z,9.55
2023-05-10T13:35:19.011Z,7.82
2023-05-10T13:37:45.698Z,8.70
2023-05-10T13:40:12.640Z,9.18
2023-05-10T13:42:39.387Z,9.00
2023-05-10T13:45:06.901Z,8.07
2023-05-10T13:47:33.873Z,7.13
2023-05-10T13:50:00.552Z,8.30
2023-05-10T13:52:27.635Z,9.65
2023-05-10T13:54:56.259Z,9.07
2023-05-10T13:57:24.930Z,8.30
2023-05-10T13:59:51.834Z,6.72
2023-05-10T14:02:18.592Z,8.63
2023-05-10T14:04:45.342Z,10.10
2023-05-10T14:07:12.067Z,7.68
2023-05-10T14:09:38.725Z,10.07
2023-05-10T14:12:05.503Z,12.07
2023-05-10T14:14:32.212Z,12.57
2023-05-10T14:17:00.345Z,9.07
2023-05-10T14:19:28.145Z,8.18
2023-05-10T14:24:21.418Z,8.98
2023-05-10T14:26:48.180Z,13.40
2023-05-10T14:29:14.813Z,10.32
2023-05-10T14:31:41.722Z,10.55
2023-05-10T14:34:08.449Z,12.57
2023-05-10T14:36:35.106Z,8.32
2023-05-10T14:39:01.840Z,11.32
2023-05-10T14:41:28.611Z,9.85
2023-05-10T14:43:55.276Z,8.90
2023-05-10T14:46:21.991Z,10.48
2023-05-10T14:48:48.741Z,9.75
2023-05-10T14:51:15.390Z,9.85
2023-05-10T14:53:42.086Z,10.10
2023-05-10T14:56:08.767Z,6.95
2023-05-10T14:58:35.486Z,6.55
2023-05-10T15:01:02.339Z,10.43
2023-05-10T15:03:29.806Z,10.15
2023-05-10T15:05:58.647Z,9.40
2023-05-10T15:08:25.709Z,10.25
2023-05-10T15:10:52.773Z,10.83
2023-05-10T15:13:19.419Z,10.70
2023-05-10T15:15:46.147Z,12.57
2023-05-10T15:18:12.913Z,11.82
2023-05-10T15:20:39.631Z,9.15
2023-05-10T15:23:06.348Z,9.55
2023-05-10T15:25:35.830Z,11.25
2023-05-10T15:28:03.667Z,13.40
2023-05-10T15:32:57.792Z,13.05
2023-05-10T15:35:24.782Z,10.45
2023-05-10T15:37:51.539Z,10.20
2023-05-10T15:40:18.390Z,4.97
2023-05-10T15:42:45.326Z,4.68
2023-05-10T15:45:12.854Z,6.32
2023-05-10T15:47:40.569Z,7.15
2023-05-10T15:52:34.647Z,9.75
2023-05-10T15:55:01.352Z,10.35
2023-05-10T15:57:28.043Z,13.63
2023-05-10T15:59:54.750Z,17.85
2023-05-10T16:02:22.632Z,20.23
2023-05-10T16:04:49.766Z,17.13
2023-05-10T16:07:16.400Z,19.92
2023-05-10T16:09:43.137Z,17.77
2023-05-10T16:12:09.924Z,20.40
2023-05-10T16:14:36.636Z,20.50
2023-05-10T16:17:04.660Z,22.67
2023-05-10T16:19:31.707Z,19.15
2023-05-10T16:21:58.458Z,19.42
2023-05-10T16:24:26.241Z,15.73
2023-05-10T16:26:52.976Z,15.25
2023-05-10T16:29:19.692Z,10.55
2023-05-10T16:31:46.387Z,8.60
2023-05-10T16:34:13.170Z,11.38
2023-05-10T16:36:39.828Z,9.65
2023-05-10T16:39:06.796Z,10.75
2023-05-10T16:41:34.392Z,10.57
2023-05-10T16:44:01.686Z,12.20
2023-05-10T16:46:28.542Z,11.60
2023-05-10T16:48:56.039Z,11.60
2023-05-10T16:51:22.825Z,11.07
2023-05-10T16:53:49.826Z,14.10
2023-05-10T16:56:18.432Z,12.37
2023-05-10T16:58:47.568Z,10.93
2023-05-10T17:01:14.228Z,10.80
2023-05-10T17:03:41.526Z,10.95
2023-05-10T17:06:08.793Z,9.25
2023-05-10T17:08:35.693Z,8.68
2023-05-10T17:11:03.897Z,9.32
2023-05-10T17:13:31.933Z,9.82
2023-05-10T17:15:58.762Z,9.93
2023-05-10T17:18:26.690Z,10.77
2023-05-10T17:23:20.083Z,6.65
2023-05-10T17:25:46.784Z,10.88
2023-05-10T17:28:13.415Z,10.20
2023-05-10T17:30:40.280Z,11.15
2023-05-10T17:33:06.951Z,9.98
2023-05-10T17:35:34.120Z,9.93
2023-05-10T17:38:00.974Z,7.63
2023-05-10T17:40:27.757Z,9.50
2023-05-10T17:42:54.503Z,9.77
2023-05-10T17:45:21.249Z,7.63
2023-05-10T17:47:48.019Z,8.80
2023-05-10T17:50:14.856Z,6.57
2023-05-10T17:52:41.528Z,10.02
2023-05-10T17:55:08.693Z,9.23
2023-05-10T17:57:38.055Z,9.98
2023-05-10T18:00:06.583Z,8.00
2023-05-10T18:02:33.319Z,10.02
2023-05-10T18:05:01.412Z,9.35
2023-05-10T18:07:30.063Z,9.48
2023-05-10T18:09:58.075Z,7.78
2023-05-10T18:14:51.664Z,9.40
2023-05-10T18:17:18.437Z,9.05
2023-05-10T18:19:45.123Z,8.18
2023-05-10T18:22:11.807Z,9.20
2023-05-10T18:24:39.899Z,8.18
2023-05-10T18:27:08.766Z,10.90
2023-05-10T18:29:36.242Z,7.75
2023-05-10T18:32:03.081Z,9.57
2023-05-10T18:34:29.705Z,15.35
2023-05-10T18:36:56.654Z,9.85
2023-05-10T18:39:24.347Z,8.63
2023-05-10T18:41:51.212Z,10.45
2023-05-10T18:44:19.107Z,13.45
2023-05-10T18:46:46.445Z,13.52
2023-05-10T18:49:13.325Z,13.48
2023-05-10T18:51:40.143Z,13.55
2023-05-10T18:54:07.347Z,10.40
2023-05-10T18:56:34.021Z,9.20
2023-05-10T18:59:00.809Z,7.88
2023-05-10T19:01:27.578Z,12.32
2023-05-10T19:03:54.234Z,8.88
2023-05-10T19:06:21.008Z,11.18
2023-05-10T19:08:47.618Z,12.23
2023-05-10T19:11:14.254Z,11.38
2023-05-10T19:13:40.945Z,10.05
2023-05-10T19:16:14.325Z,11.60
2023-05-10T19:18:41.229Z,11.40
2023-05-10T19:21:10.451Z,10.57
2023-05-10T19:23:40.360Z,11.18
2023-05-10T19:26:09.965Z,9.27
2023-05-10T19:28:37.826Z,10.13
2023-05-10T19:33:31.662Z,10.02
2023-05-10T19:35:58.403Z,10.23
2023-05-10T19:38:25.909Z,10.63
2023-05-10T19:40:58.320Z,13.73
2023-05-10T19:43:29.582Z,15.63
2023-05-10T19:46:02.193Z,13.45
2023-05-10T19:48:29.251Z,14.55
2023-05-10T19:51:03.682Z,15.23
2023-05-10T19:53:31.632Z,15.63
2023-05-10T19:58:31.534Z,13.05
2023-05-10T20:00:58.200Z,15.00
2023-05-10T20:03:25.115Z,13.95
2023-05-10T20:05:52.086Z,14.85
2023-05-10T20:08:18.837Z,14.37
2023-05-10T20:10:45.908Z,16.38
2023-05-10T20:13:12.692Z,47.22
2023-05-10T20:15:39.386Z,18.15
2023-05-10T20:18:06.220Z,15.13
2023-05-10T20:20:32.908Z,16.17
2023-05-10T20:22:59.602Z,14.23
2023-05-10T20:25:26.361Z,16.95
2023-05-10T20:27:53.168Z,14.10
2023-05-10T20:30:20.226Z,17.00
2023-05-10T20:32:47.313Z,18.70
2023-05-10T20:35:13.994Z,20.73
2023-05-10T20:37:40.794Z,18.08
2023-05-10T20:40:08.013Z,17.67
2023-05-10T20:42:34.670Z,22.42
2023-05-10T20:45:01.355Z,16.83
2023-05-10T20:47:28.145Z,16.83
2023-05-10T20:49:54.834Z,18.42
2023-05-10T20:52:23.354Z,18.23
2023-05-10T20:54:51.165Z,18.45
2023-05-10T20:57:17.899Z,17.77
2023-05-10T20:59:44.566Z,18.15
2023-05-10T21:02:11.247Z,21.38
2023-05-10T21:04:38.404Z,23.27
2023-05-10T21:07:05.119Z,21.27
2023-05-10T21:09:31.863Z,22.90
2023-05-10T21:11:58.605Z,17.92
2023-05-10T21:14:25.614Z,23.33
2023-05-10T21:16:52.449Z,24.30
2023-05-10T21:19:19.297Z,25.05
2023-05-10T21:21:46.049Z,26.92
2023-05-10T21:24:12.746Z,28.30
2023-05-10T21:26:39.710Z,28.00
2023-05-10T21:29:06.942Z,26.02
2023-05-10T21:31:33.738Z,26.02
2023-05-10T21:34:01.013Z,28.02
2023-05-10T21:36:27.979Z,28.98
2023-05-10T21:38:54.778Z,26.08
2023-05-10T21:41:21.843Z,31.98
2023-05-10T21:43:48.597Z,25.63
2023-05-10T21:46:15.424Z,29.58
2023-05-10T21:48:42.143Z,28.90
2023-05-10T21:51:09.269Z,26.40
2023-05-10T21:53:37.574Z,35.08
2023-05-10T21:56:04.650Z,32.88
2023-05-10T21:58:31.421Z,29.73
2023-05-10T22:00:58.097Z,25.95
2023-05-10T22:03:24.939Z,29.52
2023-05-10T22:05:51.669Z,32.00
2023-05-10T22:08:18.388Z,30.17
2023-05-10T22:10:45.033Z,28.95
2023-05-10T22:13:11.695Z,33.67
2023-05-10T22:15:38.488Z,27.98
2023-05-10T22:18:05.621Z,32.22
2023-05-10T22:20:32.648Z,29.48
2023-05-10T22:22:59.518Z,29.13
2023-05-10T22:25:26.153Z,31.80
2023-05-10T22:27:52.815Z,29.95
2023-05-10T22:30:20.252Z,31.75
2023-05-10T22:32:47.228Z,26.75
2023-05-10T22:35:13.889Z,33.42
2023-05-10T22:37:40.590Z,32.33
2023-05-10T22:40:07.878Z,33.45
2023-05-10T22:42:34.547Z,37.88
2023-05-10T22:45:01.324Z,34.50
2023-05-10T22:47:28.064Z,31.40
2023-05-10T22:49:55.600Z,43.13
2023-05-10T22:52:22.281Z,33.72
2023-05-10T22:54:48.993Z,34.13
2023-05-10T22:57:16.396Z,34.67
2023-05-10T22:59:43.391Z,32.72
2023-05-10T23:02:10.203Z,32.53
2023-05-10T23:04:37.152Z,30.05
2023-05-10T23:07:03.849Z,34.13
2023-05-10T23:09:30.481Z,33.00
2023-05-10T23:11:57.478Z,31.95
2023-05-10T23:14:24.157Z,38.45
2023-05-10T23:16:51.166Z,30.05
2023-05-10T23:19:17.840Z,34.28
2023-05-10T23:21:44.520Z,30.05
2023-05-10T23:24:11.683Z,32.22
2023-05-10T23:26:38.387Z,34.10
2023-05-10T23:29:05.066Z,28.80
2023-05-10T23:31:31.784Z,35.08
2023-05-10T23:33:58.475Z,31.10
2023-05-10T23:36:25.162Z,28.33
2023-05-10T23:38:51.766Z,34.63
2023-05-10T23:41:18.893Z,38.92
2023-05-10T23:43:45.595Z,35.73
2023-05-10T23:46:12.358Z,35.53
2023-05-10T23:48:39.070Z,40.40
2023-05-10T23:51:05.791Z,38.72
2023-05-10T23:53:32.476Z,35.42
2023-05-10T23:55:59.192Z,37.40
2023-05-10T23:58:25.861Z,40.50
